sensor_id;sensor_type;location;lat;lon;timestamp;temperature;humidity
33827;DHT22;20128;45.582;5.298;2022-12-18T00:01:34;2.00;88.10
33827;DHT22;20128;45.582;5.298;2022-12-18T00:04:02;2.00;88.40
33827;DHT22;20128;45.582;5.298;2022-12-18T00:06:32;2.10;88.70
33827;DHT22;20128;45.582;5.298;2022-12-18T00:08:59;2.10;88.80
33827;DHT22;20128;45.582;5.298;2022-12-18T00:11:27;2.00;88.60
33827;DHT22;20128;45.582;5.298;2022-12-18T00:13:55;2.00;88.80
33827;DHT22;20128;45.582;5.298;2022-12-18T00:16:22;1.90;88.80
33827;DHT22;20128;45.582;5.298;2022-12-18T00:18:50;1.80;89.20
33827;DHT22;20128;45.582;5.298;2022-12-18T00:21:17;1.80;89.80
33827;DHT22;20128;45.582;5.298;2022-12-18T00:23:44;1.60;89.50
33827;DHT22;20128;45.582;5.298;2022-12-18T00:26:14;1.60;90.00
33827;DHT22;20128;45.582;5.298;2022-12-18T00:28:44;1.40;90.20
33827;DHT22;20128;45.582;5.298;2022-12-18T00:31:15;1.20;90.40
33827;DHT22;20128;45.582;5.298;2022-12-18T00:33:41;1.10;90.50
33827;DHT22;20128;45.582;5.298;2022-12-18T00:36:10;1.00;90.90
33827;DHT22;20128;45.582;5.298;2022-12-18T00:38:37;0.90;90.90
33827;DHT22;20128;45.582;5.298;2022-12-18T00:41:04;0.80;91.10
33827;DHT22;20128;45.582;5.298;2022-12-18T00:43:30;0.70;91.20
33827;DHT22;20128;45.582;5.298;2022-12-18T00:45:56;0.70;91.30
33827;DHT22;20128;45.582;5.298;2022-12-18T00:48:22;0.70;91.40
33827;DHT22;20128;45.582;5.298;2022-12-18T00:50:49;0.70;91.40
33827;DHT22;20128;45.582;5.298;2022-12-18T00:53:15;0.70;91.50
33827;DHT22;20128;45.582;5.298;2022-12-18T00:55:41;0.80;91.50
33827;DHT22;20128;45.582;5.298;2022-12-18T00:58:09;0.90;91.30
33827;DHT22;20128;45.582;5.298;2022-12-18T01:00:35;1.00;91.20
33827;DHT22;20128;45.582;5.298;2022-12-18T01:03:01;1.10;91.20
33827;DHT22;20128;45.582;5.298;2022-12-18T01:05:27;1.20;91.20
33827;DHT22;20128;45.582;5.298;2022-12-18T01:07:53;1.30;91.10
33827;DHT22;20128;45.582;5.298;2022-12-18T01:10:18;1.30;91.00
33827;DHT22;20128;45.582;5.298;2022-12-18T01:12:44;1.50;90.90
33827;DHT22;20128;45.582;5.298;2022-12-18T01:15:12;1.40;90.80
33827;DHT22;20128;45.582;5.298;2022-12-18T01:17:38;1.40;90.80
33827;DHT22;20128;45.582;5.298;2022-12-18T01:20:04;1.50;90.70
33827;DHT22;20128;45.582;5.298;2022-12-18T01:22:30;1.50;90.60
33827;DHT22;20128;45.582;5.298;2022-12-18T01:24:56;1.60;90.60
33827;DHT22;20128;45.582;5.298;2022-12-18T01:27:21;1.70;90.50
33827;DHT22;20128;45.582;5.298;2022-12-18T01:29:47;1.60;90.40
33827;DHT22;20128;45.582;5.298;2022-12-18T01:32:12;1.70;90.30
33827;DHT22;20128;45.582;5.298;2022-12-18T01:34:38;1.70;90.30
33827;DHT22;20128;45.582;5.298;2022-12-18T01:37:04;1.60;90.10
33827;DHT22;20128;45.582;5.298;2022-12-18T01:39:30;1.60;90.10
33827;DHT22;20128;45.582;5.298;2022-12-18T01:41:58;1.60;90.10
33827;DHT22;20128;45.582;5.298;2022-12-18T01:47:21;1.70;89.60
33827;DHT22;20128;45.582;5.298;2022-12-18T01:49:48;1.60;89.20
33827;DHT22;20128;45.582;5.298;2022-12-18T01:52:14;1.60;89.30
33827;DHT22;20128;45.582;5.298;2022-12-18T01:54:40;1.60;88.80
33827;DHT22;20128;45.582;5.298;2022-12-18T01:57:06;1.60;88.90
33827;DHT22;20128;45.582;5.298;2022-12-18T01:59:33;1.60;88.80
33827;DHT22;20128;45.582;5.298;2022-12-18T02:02:01;1.60;88.70
33827;DHT22;20128;45.582;5.298;2022-12-18T02:04:27;1.60;88.60
33827;DHT22;20128;45.582;5.298;2022-12-18T02:09:34;1.60;88.50
33827;DHT22;20128;45.582;5.298;2022-12-18T02:15:02;1.70;88.50
33827;DHT22;20128;45.582;5.298;2022-12-18T02:17:45;1.70;88.30
33827;DHT22;20128;45.582;5.298;2022-12-18T02:20:32;1.70;88.40
33827;DHT22;20128;45.582;5.298;2022-12-18T02:26:15;1.60;87.80
33827;DHT22;20128;45.582;5.298;2022-12-18T02:28:52;1.60;88.00
33827;DHT22;20128;45.582;5.298;2022-12-18T02:31:24;1.60;88.10
33827;DHT22;20128;45.582;5.298;2022-12-18T02:33:52;1.60;88.20
33827;DHT22;20128;45.582;5.298;2022-12-18T02:36:20;1.60;87.90
33827;DHT22;20128;45.582;5.298;2022-12-18T02:38:47;1.60;87.40
33827;DHT22;20128;45.582;5.298;2022-12-18T02:41:14;1.60;87.50
33827;DHT22;20128;45.582;5.298;2022-12-18T02:43:49;1.60;87.20
33827;DHT22;20128;45.582;5.298;2022-12-18T02:46:29;1.60;86.40
33827;DHT22;20128;45.582;5.298;2022-12-18T02:49:12;1.50;86.10
33827;DHT22;20128;45.582;5.298;2022-12-18T02:51:52;1.50;86.70
33827;DHT22;20128;45.582;5.298;2022-12-18T02:57:01;1.40;87.70
33827;DHT22;20128;45.582;5.298;2022-12-18T02:59:44;1.30;88.00
33827;DHT22;20128;45.582;5.298;2022-12-18T03:05:11;1.10;89.70
33827;DHT22;20128;45.582;5.298;2022-12-18T03:10:16;1.10;90.20
33827;DHT22;20128;45.582;5.298;2022-12-18T03:12:58;1.10;90.10
33827;DHT22;20128;45.582;5.298;2022-12-18T03:15:30;1.20;90.10
33827;DHT22;20128;45.582;5.298;2022-12-18T03:18:08;1.20;90.30
33827;DHT22;20128;45.582;5.298;2022-12-18T03:20:37;1.10;90.60
33827;DHT22;20128;45.582;5.298;2022-12-18T03:23:13;1.00;91.00
33827;DHT22;20128;45.582;5.298;2022-12-18T03:25:41;1.00;91.10
33827;DHT22;20128;45.582;5.298;2022-12-18T03:28:12;1.10;91.40
33827;DHT22;20128;45.582;5.298;2022-12-18T03:30:39;1.00;91.70
33827;DHT22;20128;45.582;5.298;2022-12-18T03:33:15;1.00;91.70
33827;DHT22;20128;45.582;5.298;2022-12-18T03:35:43;0.90;91.80
33827;DHT22;20128;45.582;5.298;2022-12-18T03:38:10;1.00;91.80
33827;DHT22;20128;45.582;5.298;2022-12-18T03:40:44;1.00;91.80
33827;DHT22;20128;45.582;5.298;2022-12-18T03:43:20;1.00;91.80
33827;DHT22;20128;45.582;5.298;2022-12-18T03:45:54;1.10;91.70
33827;DHT22;20128;45.582;5.298;2022-12-18T03:48:31;1.00;91.70
33827;DHT22;20128;45.582;5.298;2022-12-18T03:51:02;1.00;91.70
33827;DHT22;20128;45.582;5.298;2022-12-18T03:53:55;1.00;91.80
33827;DHT22;20128;45.582;5.298;2022-12-18T03:56:25;1.00;91.80
33827;DHT22;20128;45.582;5.298;2022-12-18T03:58:52;1.00;91.80
33827;DHT22;20128;45.582;5.298;2022-12-18T04:01:23;1.10;91.90
33827;DHT22;20128;45.582;5.298;2022-12-18T04:03:51;1.00;91.90
33827;DHT22;20128;45.582;5.298;2022-12-18T04:06:17;1.00;92.00
33827;DHT22;20128;45.582;5.298;2022-12-18T04:08:44;1.00;92.00
33827;DHT22;20128;45.582;5.298;2022-12-18T04:11:10;1.10;92.00
33827;DHT22;20128;45.582;5.298;2022-12-18T04:13:37;1.10;92.10
33827;DHT22;20128;45.582;5.298;2022-12-18T04:16:03;1.10;92.00
33827;DHT22;20128;45.582;5.298;2022-12-18T04:18:29;1.00;92.00
33827;DHT22;20128;45.582;5.298;2022-12-18T04:20:55;1.10;92.20
33827;DHT22;20128;45.582;5.298;2022-12-18T04:23:20;1.00;92.10
33827;DHT22;20128;45.582;5.298;2022-12-18T04:25:47;1.10;92.10
33827;DHT22;20128;45.582;5.298;2022-12-18T04:28:13;1.10;92.00
33827;DHT22;20128;45.582;5.298;2022-12-18T04:30:39;1.10;92.00
33827;DHT22;20128;45.582;5.298;2022-12-18T04:33:09;1.10;92.20
33827;DHT22;20128;45.582;5.298;2022-12-18T04:35:35;1.10;92.00
33827;DHT22;20128;45.582;5.298;2022-12-18T04:38:00;1.10;92.00
33827;DHT22;20128;45.582;5.298;2022-12-18T04:40:26;1.10;92.20
33827;DHT22;20128;45.582;5.298;2022-12-18T04:42:52;1.00;92.20
33827;DHT22;20128;45.582;5.298;2022-12-18T04:45:17;1.10;92.30
33827;DHT22;20128;45.582;5.298;2022-12-18T04:47:43;1.10;92.20
33827;DHT22;20128;45.582;5.298;2022-12-18T04:50:09;1.10;92.20
33827;DHT22;20128;45.582;5.298;2022-12-18T04:52:35;1.10;92.20
33827;DHT22;20128;45.582;5.298;2022-12-18T04:55:00;1.10;92.30
33827;DHT22;20128;45.582;5.298;2022-12-18T04:57:26;1.10;92.30
33827;DHT22;20128;45.582;5.298;2022-12-18T04:59:52;1.10;92.30
33827;DHT22;20128;45.582;5.298;2022-12-18T05:02:17;1.10;92.30
33827;DHT22;20128;45.582;5.298;2022-12-18T05:04:43;1.20;92.30
33827;DHT22;20128;45.582;5.298;2022-12-18T05:07:09;1.20;92.40
33827;DHT22;20128;45.582;5.298;2022-12-18T05:09:34;1.20;92.40
33827;DHT22;20128;45.582;5.298;2022-12-18T05:12:00;1.10;92.40
33827;DHT22;20128;45.582;5.298;2022-12-18T05:14:25;1.20;92.40
33827;DHT22;20128;45.582;5.298;2022-12-18T05:16:53;1.20;92.40
33827;DHT22;20128;45.582;5.298;2022-12-18T05:19:18;1.30;92.40
33827;DHT22;20128;45.582;5.298;2022-12-18T05:21:44;1.20;92.30
33827;DHT22;20128;45.582;5.298;2022-12-18T05:24:10;1.30;92.30
33827;DHT22;20128;45.582;5.298;2022-12-18T05:26:35;1.30;92.30
33827;DHT22;20128;45.582;5.298;2022-12-18T05:29:01;1.20;92.40
33827;DHT22;20128;45.582;5.298;2022-12-18T05:31:27;1.20;92.40
33827;DHT22;20128;45.582;5.298;2022-12-18T05:33:53;1.20;92.40
33827;DHT22;20128;45.582;5.298;2022-12-18T05:36:19;1.20;92.40
33827;DHT22;20128;45.582;5.298;2022-12-18T05:38:45;1.20;92.50
33827;DHT22;20128;45.582;5.298;2022-12-18T05:41:10;1.10;92.60
33827;DHT22;20128;45.582;5.298;2022-12-18T05:43:38;1.10;92.60
33827;DHT22;20128;45.582;5.298;2022-12-18T05:46:05;1.20;92.60
33827;DHT22;20128;45.582;5.298;2022-12-18T05:48:31;1.10;92.70
33827;DHT22;20128;45.582;5.298;2022-12-18T05:51:07;1.10;92.70
33827;DHT22;20128;45.582;5.298;2022-12-18T05:53:33;1.20;92.80
33827;DHT22;20128;45.582;5.298;2022-12-18T05:56:01;1.20;92.70
33827;DHT22;20128;45.582;5.298;2022-12-18T05:58:27;1.20;92.80
33827;DHT22;20128;45.582;5.298;2022-12-18T06:00:52;1.20;92.80
33827;DHT22;20128;45.582;5.298;2022-12-18T06:03:18;1.20;92.80
33827;DHT22;20128;45.582;5.298;2022-12-18T06:05:44;1.10;92.80
33827;DHT22;20128;45.582;5.298;2022-12-18T06:08:11;1.20;92.80
33827;DHT22;20128;45.582;5.298;2022-12-18T06:10:38;1.10;92.80
33827;DHT22;20128;45.582;5.298;2022-12-18T06:13:04;1.10;93.00
33827;DHT22;20128;45.582;5.298;2022-12-18T06:15:30;1.10;92.80
33827;DHT22;20128;45.582;5.298;2022-12-18T06:17:56;1.20;92.80
33827;DHT22;20128;45.582;5.298;2022-12-18T06:20:22;1.10;92.80
33827;DHT22;20128;45.582;5.298;2022-12-18T06:22:47;1.20;92.80
33827;DHT22;20128;45.582;5.298;2022-12-18T06:25:13;1.10;92.80
33827;DHT22;20128;45.582;5.298;2022-12-18T06:27:39;1.20;92.80
33827;DHT22;20128;45.582;5.298;2022-12-18T06:30:05;1.20;92.80
33827;DHT22;20128;45.582;5.298;2022-12-18T06:32:31;1.20;92.70
33827;DHT22;20128;45.582;5.298;2022-12-18T06:34:57;1.30;92.70
33827;DHT22;20128;45.582;5.298;2022-12-18T06:37:23;1.20;92.70
33827;DHT22;20128;45.582;5.298;2022-12-18T06:39:54;1.20;92.70
33827;DHT22;20128;45.582;5.298;2022-12-18T06:42:22;1.20;92.80
33827;DHT22;20128;45.582;5.298;2022-12-18T06:44:47;1.20;92.80
33827;DHT22;20128;45.582;5.298;2022-12-18T06:47:13;1.20;92.80
33827;DHT22;20128;45.582;5.298;2022-12-18T06:49:39;1.20;92.80
33827;DHT22;20128;45.582;5.298;2022-12-18T06:52:04;1.20;92.90
33827;DHT22;20128;45.582;5.298;2022-12-18T06:54:30;1.20;92.80
33827;DHT22;20128;45.582;5.298;2022-12-18T06:56:56;1.10;93.00
33827;DHT22;20128;45.582;5.298;2022-12-18T06:59:21;1.20;92.90
33827;DHT22;20128;45.582;5.298;2022-12-18T07:01:47;1.10;92.80
33827;DHT22;20128;45.582;5.298;2022-12-18T07:04:13;1.10;92.90
33827;DHT22;20128;45.582;5.298;2022-12-18T07:06:38;1.10;93.00
33827;DHT22;20128;45.582;5.298;2022-12-18T07:09:04;1.20;92.90
33827;DHT22;20128;45.582;5.298;2022-12-18T07:11:32;1.20;93.00
33827;DHT22;20128;45.582;5.298;2022-12-18T07:13:58;1.10;92.90
33827;DHT22;20128;45.582;5.298;2022-12-18T07:16:23;1.20;93.00
33827;DHT22;20128;45.582;5.298;2022-12-18T07:18:49;1.20;92.90
33827;DHT22;20128;45.582;5.298;2022-12-18T07:21:17;1.30;92.90
33827;DHT22;20128;45.582;5.298;2022-12-18T07:23:43;1.20;92.90
33827;DHT22;20128;45.582;5.298;2022-12-18T07:26:11;1.20;92.80
33827;DHT22;20128;45.582;5.298;2022-12-18T07:28:38;1.20;92.90
33827;DHT22;20128;45.582;5.298;2022-12-18T07:31:12;1.20;92.80
33827;DHT22;20128;45.582;5.298;2022-12-18T07:33:38;1.30;92.70
33827;DHT22;20128;45.582;5.298;2022-12-18T07:36:06;1.30;92.80
33827;DHT22;20128;45.582;5.298;2022-12-18T07:38:32;1.30;92.90
33827;DHT22;20128;45.582;5.298;2022-12-18T07:43:28;1.30;92.80
33827;DHT22;20128;45.582;5.298;2022-12-18T07:45:54;1.30;92.80
33827;DHT22;20128;45.582;5.298;2022-12-18T07:48:19;1.30;92.90
33827;DHT22;20128;45.582;5.298;2022-12-18T07:50:45;1.30;92.80
33827;DHT22;20128;45.582;5.298;2022-12-18T07:53:11;1.30;92.80
33827;DHT22;20128;45.582;5.298;2022-12-18T07:55:36;1.30;92.80
33827;DHT22;20128;45.582;5.298;2022-12-18T07:58:05;1.40;92.80
33827;DHT22;20128;45.582;5.298;2022-12-18T08:00:31;1.30;92.80
33827;DHT22;20128;45.582;5.298;2022-12-18T08:02:57;1.30;92.80
33827;DHT22;20128;45.582;5.298;2022-12-18T08:05:23;1.40;92.80
33827;DHT22;20128;45.582;5.298;2022-12-18T08:07:48;1.40;92.80
33827;DHT22;20128;45.582;5.298;2022-12-18T08:10:14;1.40;92.70
33827;DHT22;20128;45.582;5.298;2022-12-18T08:12:40;1.40;92.80
33827;DHT22;20128;45.582;5.298;2022-12-18T08:15:06;1.50;92.80
33827;DHT22;20128;45.582;5.298;2022-12-18T08:17:32;1.50;92.70
33827;DHT22;20128;45.582;5.298;2022-12-18T08:19:58;1.50;92.70
33827;DHT22;20128;45.582;5.298;2022-12-18T08:22:24;1.50;92.60
33827;DHT22;20128;45.582;5.298;2022-12-18T08:24:50;1.60;92.70
33827;DHT22;20128;45.582;5.298;2022-12-18T08:27:15;1.60;92.70
33827;DHT22;20128;45.582;5.298;2022-12-18T08:29:41;1.60;92.70
33827;DHT22;20128;45.582;5.298;2022-12-18T08:32:07;1.70;92.70
33827;DHT22;20128;45.582;5.298;2022-12-18T08:34:33;1.70;92.60
33827;DHT22;20128;45.582;5.298;2022-12-18T08:36:58;1.80;92.60
33827;DHT22;20128;45.582;5.298;2022-12-18T08:39:24;1.80;92.60
33827;DHT22;20128;45.582;5.298;2022-12-18T08:41:49;1.80;92.60
33827;DHT22;20128;45.582;5.298;2022-12-18T08:44:34;1.80;92.60
33827;DHT22;20128;45.582;5.298;2022-12-18T08:47:06;1.90;92.60
33827;DHT22;20128;45.582;5.298;2022-12-18T08:49:32;2.00;92.50
33827;DHT22;20128;45.582;5.298;2022-12-18T08:51:58;2.00;92.60
33827;DHT22;20128;45.582;5.298;2022-12-18T08:54:24;2.10;92.60
33827;DHT22;20128;45.582;5.298;2022-12-18T08:56:50;2.10;92.60
33827;DHT22;20128;45.582;5.298;2022-12-18T08:59:17;2.30;92.60
33827;DHT22;20128;45.582;5.298;2022-12-18T09:01:43;2.30;92.50
33827;DHT22;20128;45.582;5.298;2022-12-18T09:04:12;2.40;92.40
33827;DHT22;20128;45.582;5.298;2022-12-18T09:06:38;2.40;92.20
33827;DHT22;20128;45.582;5.298;2022-12-18T09:09:04;2.50;92.20
33827;DHT22;20128;45.582;5.298;2022-12-18T09:11:31;2.60;92.10
33827;DHT22;20128;45.582;5.298;2022-12-18T09:13:57;2.60;91.90
33827;DHT22;20128;45.582;5.298;2022-12-18T09:16:25;2.70;91.70
33827;DHT22;20128;45.582;5.298;2022-12-18T09:18:51;2.80;91.90
33827;DHT22;20128;45.582;5.298;2022-12-18T09:21:19;2.80;91.70
33827;DHT22;20128;45.582;5.298;2022-12-18T09:23:53;2.90;91.60
33827;DHT22;20128;45.582;5.298;2022-12-18T09:26:20;3.00;91.40
33827;DHT22;20128;45.582;5.298;2022-12-18T09:28:45;3.10;91.20
33827;DHT22;20128;45.582;5.298;2022-12-18T09:31:12;3.20;91.40
33827;DHT22;20128;45.582;5.298;2022-12-18T09:33:39;3.30;91.30
33827;DHT22;20128;45.582;5.298;2022-12-18T09:36:14;3.40;91.30
33827;DHT22;20128;45.582;5.298;2022-12-18T09:38:40;3.50;91.30
33827;DHT22;20128;45.582;5.298;2022-12-18T09:41:14;3.60;91.20
33827;DHT22;20128;45.582;5.298;2022-12-18T09:43:53;3.80;91.10
33827;DHT22;20128;45.582;5.298;2022-12-18T09:46:30;4.00;90.50
33827;DHT22;20128;45.582;5.298;2022-12-18T09:49:00;4.10;89.70
33827;DHT22;20128;45.582;5.298;2022-12-18T09:51:32;4.20;89.90
33827;DHT22;20128;45.582;5.298;2022-12-18T09:54:03;4.30;90.00
33827;DHT22;20128;45.582;5.298;2022-12-18T09:56:35;4.50;89.00
33827;DHT22;20128;45.582;5.298;2022-12-18T09:59:03;4.60;88.90
33827;DHT22;20128;45.582;5.298;2022-12-18T10:01:31;4.60;88.30
33827;DHT22;20128;45.582;5.298;2022-12-18T10:03:57;4.70;87.60
33827;DHT22;20128;45.582;5.298;2022-12-18T10:06:26;4.80;87.60
33827;DHT22;20128;45.582;5.298;2022-12-18T10:09:20;4.90;87.80
33827;DHT22;20128;45.582;5.298;2022-12-18T10:17:41;5.10;86.00
33827;DHT22;20128;45.582;5.298;2022-12-18T10:23:16;5.20;86.20
33827;DHT22;20128;45.582;5.298;2022-12-18T10:28:30;5.40;85.10
33827;DHT22;20128;45.582;5.298;2022-12-18T10:30:56;5.50;85.10
33827;DHT22;20128;45.582;5.298;2022-12-18T10:33:24;5.50;84.70
33827;DHT22;20128;45.582;5.298;2022-12-18T10:35:51;5.50;84.80
33827;DHT22;20128;45.582;5.298;2022-12-18T10:41:06;5.60;83.90
33827;DHT22;20128;45.582;5.298;2022-12-18T10:43:38;5.70;84.60
33827;DHT22;20128;45.582;5.298;2022-12-18T10:51:46;6.10;84.40
33827;DHT22;20128;45.582;5.298;2022-12-18T10:54:22;6.20;83.60
33827;DHT22;20128;45.582;5.298;2022-12-18T10:56:49;6.30;83.20
33827;DHT22;20128;45.582;5.298;2022-12-18T10:59:16;6.40;83.80
33827;DHT22;20128;45.582;5.298;2022-12-18T11:04:23;6.60;82.60
33827;DHT22;20128;45.582;5.298;2022-12-18T11:09:27;6.70;82.70
33827;DHT22;20128;45.582;5.298;2022-12-18T11:11:56;6.80;82.30
33827;DHT22;20128;45.582;5.298;2022-12-18T11:16:50;6.90;81.70
33827;DHT22;20128;45.582;5.298;2022-12-18T11:21:50;6.90;82.40
33827;DHT22;20128;45.582;5.298;2022-12-18T11:24:35;6.80;82.70
33827;DHT22;20128;45.582;5.298;2022-12-18T11:27:03;6.90;83.00
33827;DHT22;20128;45.582;5.298;2022-12-18T11:29:35;6.90;83.30
33827;DHT22;20128;45.582;5.298;2022-12-18T11:34:59;7.10;83.90
33827;DHT22;20128;45.582;5.298;2022-12-18T11:37:27;7.10;83.70
33827;DHT22;20128;45.582;5.298;2022-12-18T11:40:01;7.20;83.70
33827;DHT22;20128;45.582;5.298;2022-12-18T11:42:38;7.20;84.20
33827;DHT22;20128;45.582;5.298;2022-12-18T11:51:02;7.40;84.60
33827;DHT22;20128;45.582;5.298;2022-12-18T11:53:03;7.40;85.00
33827;DHT22;20128;45.582;5.298;2022-12-18T12:09:43;7.80;85.60
33827;DHT22;20128;45.582;5.298;2022-12-18T12:16:58;8.00;86.20
33827;DHT22;20128;45.582;5.298;2022-12-18T12:22:31;8.10;86.00
33827;DHT22;20128;45.582;5.298;2022-12-18T12:25:18;8.20;86.00
33827;DHT22;20128;45.582;5.298;2022-12-18T12:31:07;8.30;85.60
33827;DHT22;20128;45.582;5.298;2022-12-18T12:34:06;8.40;85.40
33827;DHT22;20128;45.582;5.298;2022-12-18T12:36:58;8.40;85.50
33827;DHT22;20128;45.582;5.298;2022-12-18T12:39:35;8.50;85.10
33827;DHT22;20128;45.582;5.298;2022-12-18T12:42:04;8.50;84.60
33827;DHT22;20128;45.582;5.298;2022-12-18T12:44:55;8.50;84.30
33827;DHT22;20128;45.582;5.298;2022-12-18T12:47:33;8.50;84.30
33827;DHT22;20128;45.582;5.298;2022-12-18T12:50:04;8.60;84.50
33827;DHT22;20128;45.582;5.298;2022-12-18T12:52:39;8.60;84.60
33827;DHT22;20128;45.582;5.298;2022-12-18T12:55:16;8.70;84.10
33827;DHT22;20128;45.582;5.298;2022-12-18T12:58:07;8.70;83.70
33827;DHT22;20128;45.582;5.298;2022-12-18T13:07:24;8.70;84.00
33827;DHT22;20128;45.582;5.298;2022-12-18T13:10:32;8.70;84.10
33827;DHT22;20128;45.582;5.298;2022-12-18T13:16:03;8.70;84.60
33827;DHT22;20128;45.582;5.298;2022-12-18T13:18:29;8.60;84.60
33827;DHT22;20128;45.582;5.298;2022-12-18T13:23:27;8.60;85.10
33827;DHT22;20128;45.582;5.298;2022-12-18T13:28:52;8.50;85.40
33827;DHT22;20128;45.582;5.298;2022-12-18T13:34:24;8.50;85.90
33827;DHT22;20128;45.582;5.298;2022-12-18T13:36:53;8.50;85.90
33827;DHT22;20128;45.582;5.298;2022-12-18T13:41:50;8.50;86.20
33827;DHT22;20128;45.582;5.298;2022-12-18T13:44:36;8.50;86.30
33827;DHT22;20128;45.582;5.298;2022-12-18T13:47:03;8.40;86.40
33827;DHT22;20128;45.582;5.298;2022-12-18T13:49:43;8.40;86.50
33827;DHT22;20128;45.582;5.298;2022-12-18T13:52:22;8.40;86.60
33827;DHT22;20128;45.582;5.298;2022-12-18T13:54:56;8.40;86.80
33827;DHT22;20128;45.582;5.298;2022-12-18T13:57:34;8.40;87.00
33827;DHT22;20128;45.582;5.298;2022-12-18T14:00:33;8.50;87.10
33827;DHT22;20128;45.582;5.298;2022-12-18T14:02:59;8.40;87.10
33827;DHT22;20128;45.582;5.298;2022-12-18T14:05:34;8.40;87.00
33827;DHT22;20128;45.582;5.298;2022-12-18T14:08:15;8.40;87.00
33827;DHT22;20128;45.582;5.298;2022-12-18T14:10:49;8.40;87.10
33827;DHT22;20128;45.582;5.298;2022-12-18T14:13:35;8.40;87.00
33827;DHT22;20128;45.582;5.298;2022-12-18T14:16:04;8.40;87.30
33827;DHT22;20128;45.582;5.298;2022-12-18T14:18:56;8.40;87.10
33827;DHT22;20128;45.582;5.298;2022-12-18T14:21:26;8.40;87.10
33827;DHT22;20128;45.582;5.298;2022-12-18T14:24:19;8.40;87.20
33827;DHT22;20128;45.582;5.298;2022-12-18T14:26:45;8.30;87.10
33827;DHT22;20128;45.582;5.298;2022-12-18T14:29:37;8.30;87.10
33827;DHT22;20128;45.582;5.298;2022-12-18T14:32:14;8.30;87.30
33827;DHT22;20128;45.582;5.298;2022-12-18T14:34:43;8.30;87.30
33827;DHT22;20128;45.582;5.298;2022-12-18T14:37:11;8.30;87.40
33827;DHT22;20128;45.582;5.298;2022-12-18T14:39:37;8.30;87.40
33827;DHT22;20128;45.582;5.298;2022-12-18T14:42:03;8.30;87.40
33827;DHT22;20128;45.582;5.298;2022-12-18T14:44:28;8.30;87.50
33827;DHT22;20128;45.582;5.298;2022-12-18T14:46:55;8.20;87.60
33827;DHT22;20128;45.582;5.298;2022-12-18T14:51:55;8.20;87.70
33827;DHT22;20128;45.582;5.298;2022-12-18T14:54:22;8.20;87.70
33827;DHT22;20128;45.582;5.298;2022-12-18T14:59:43;8.20;87.60
33827;DHT22;20128;45.582;5.298;2022-12-18T15:04:36;8.20;87.70
33827;DHT22;20128;45.582;5.298;2022-12-18T15:07:17;8.20;87.60
33827;DHT22;20128;45.582;5.298;2022-12-18T15:18:15;8.00;87.80
33827;DHT22;20128;45.582;5.298;2022-12-18T15:20:59;8.00;87.80
33827;DHT22;20128;45.582;5.298;2022-12-18T15:23:49;7.90;87.80
33827;DHT22;20128;45.582;5.298;2022-12-18T15:26:18;8.00;87.90
33827;DHT22;20128;45.582;5.298;2022-12-18T15:33:59;7.90;87.80
33827;DHT22;20128;45.582;5.298;2022-12-18T15:36:26;7.90;87.80
33827;DHT22;20128;45.582;5.298;2022-12-18T15:38:53;7.90;87.70
33827;DHT22;20128;45.582;5.298;2022-12-18T15:41:21;7.90;87.60
33827;DHT22;20128;45.582;5.298;2022-12-18T15:43:49;7.90;87.60
33827;DHT22;20128;45.582;5.298;2022-12-18T15:46:18;7.80;87.60
33827;DHT22;20128;45.582;5.298;2022-12-18T15:48:54;7.80;87.60
33827;DHT22;20128;45.582;5.298;2022-12-18T15:51:31;7.80;87.60
33827;DHT22;20128;45.582;5.298;2022-12-18T15:54:00;7.80;87.80
33827;DHT22;20128;45.582;5.298;2022-12-18T15:56:26;7.80;87.80
33827;DHT22;20128;45.582;5.298;2022-12-18T15:59:16;7.80;87.80
33827;DHT22;20128;45.582;5.298;2022-12-18T16:01:44;7.80;87.70
33827;DHT22;20128;45.582;5.298;2022-12-18T16:04:14;7.80;87.80
33827;DHT22;20128;45.582;5.298;2022-12-18T16:06:41;7.80;87.20
33827;DHT22;20128;45.582;5.298;2022-12-18T16:09:08;7.80;87.10
33827;DHT22;20128;45.582;5.298;2022-12-18T16:11:35;7.80;87.20
33827;DHT22;20128;45.582;5.298;2022-12-18T16:14:27;7.80;87.30
33827;DHT22;20128;45.582;5.298;2022-12-18T16:16:58;7.80;87.40
33827;DHT22;20128;45.582;5.298;2022-12-18T16:19:25;7.80;87.30
33827;DHT22;20128;45.582;5.298;2022-12-18T16:21:52;7.80;87.30
33827;DHT22;20128;45.582;5.298;2022-12-18T16:24:25;7.80;87.10
33827;DHT22;20128;45.582;5.298;2022-12-18T16:26:52;7.90;86.90
33827;DHT22;20128;45.582;5.298;2022-12-18T16:29:18;7.90;86.70
33827;DHT22;20128;45.582;5.298;2022-12-18T16:31:44;7.80;86.30
33827;DHT22;20128;45.582;5.298;2022-12-18T16:36:36;7.80;86.40
33827;DHT22;20128;45.582;5.298;2022-12-18T16:39:02;7.80;86.40
33827;DHT22;20128;45.582;5.298;2022-12-18T16:41:28;7.70;86.40
33827;DHT22;20128;45.582;5.298;2022-12-18T16:43:56;7.70;86.10
33827;DHT22;20128;45.582;5.298;2022-12-18T16:46:22;7.70;86.30
33827;DHT22;20128;45.582;5.298;2022-12-18T16:48:48;7.70;86.30
33827;DHT22;20128;45.582;5.298;2022-12-18T16:51:13;7.70;86.30
33827;DHT22;20128;45.582;5.298;2022-12-18T16:53:39;7.70;86.10
33827;DHT22;20128;45.582;5.298;2022-12-18T16:56:05;7.60;85.70
33827;DHT22;20128;45.582;5.298;2022-12-18T16:58:31;7.60;86.00
33827;DHT22;20128;45.582;5.298;2022-12-18T17:00:57;7.50;85.80
33827;DHT22;20128;45.582;5.298;2022-12-18T17:03:22;7.40;85.80
33827;DHT22;20128;45.582;5.298;2022-12-18T17:05:48;7.40;85.90
33827;DHT22;20128;45.582;5.298;2022-12-18T17:08:13;7.40;85.80
33827;DHT22;20128;45.582;5.298;2022-12-18T17:10:39;7.30;85.80
33827;DHT22;20128;45.582;5.298;2022-12-18T17:13:05;7.40;86.00
33827;DHT22;20128;45.582;5.298;2022-12-18T17:15:34;7.30;86.00
33827;DHT22;20128;45.582;5.298;2022-12-18T17:18:00;7.30;86.20
33827;DHT22;20128;45.582;5.298;2022-12-18T17:20:26;7.40;86.30
33827;DHT22;20128;45.582;5.298;2022-12-18T17:22:52;7.40;86.50
33827;DHT22;20128;45.582;5.298;2022-12-18T17:25:18;7.40;86.40
33827;DHT22;20128;45.582;5.298;2022-12-18T17:27:43;7.40;86.50
33827;DHT22;20128;45.582;5.298;2022-12-18T17:30:09;7.40;86.40
33827;DHT22;20128;45.582;5.298;2022-12-18T17:32:35;7.50;87.10
33827;DHT22;20128;45.582;5.298;2022-12-18T17:35:01;7.50;86.40
33827;DHT22;20128;45.582;5.298;2022-12-18T17:37:26;7.60;86.30
33827;DHT22;20128;45.582;5.298;2022-12-18T17:39:52;7.50;86.20
33827;DHT22;20128;45.582;5.298;2022-12-18T17:42:18;7.50;86.00
33827;DHT22;20128;45.582;5.298;2022-12-18T17:44:44;7.40;85.60
33827;DHT22;20128;45.582;5.298;2022-12-18T17:47:11;7.40;85.60
33827;DHT22;20128;45.582;5.298;2022-12-18T17:49:37;7.30;85.10
33827;DHT22;20128;45.582;5.298;2022-12-18T17:52:03;7.10;84.60
33827;DHT22;20128;45.582;5.298;2022-12-18T17:54:29;7.00;84.60
33827;DHT22;20128;45.582;5.298;2022-12-18T17:56:55;6.90;84.60
33827;DHT22;20128;45.582;5.298;2022-12-18T17:59:20;6.80;84.90
33827;DHT22;20128;45.582;5.298;2022-12-18T18:01:47;6.80;85.00
33827;DHT22;20128;45.582;5.298;2022-12-18T18:04:13;6.70;85.10
33827;DHT22;20128;45.582;5.298;2022-12-18T18:06:38;6.70;85.50
33827;DHT22;20128;45.582;5.298;2022-12-18T18:09:04;6.70;85.60